Time;durP1;ratioP1;P1;durP2;ratioP2;P2;SDS_P1;SDS_P2;PMS_P1;PMS_P2;Temp;Humidity;BMP_temperature;BMP_pressure;BME280_temperature;BME280_humidity;BME280_pressure;Samples;Min_cycle;Max_cycle;Signal;HPM_P1;HPM_P2
2023/09/01 10:57:19;;;;;;;2.03;1.77;;;21.50;99.90;;;;;;5084499;28;21130;-88
2023/09/01 10:59:45;;;;;;;3.72;1.50;;;21.40;99.90;;;;;;5086848;28;20564;-82
2023/09/01 11:02:17;;;;;;;2.08;1.45;;;21.60;99.90;;;;;;5081713;28;20063;-85
2023/09/01 11:04:43;;;;;;;2.08;1.50;;;21.80;99.90;;;;;;5072570;28;20036;-80
2023/09/01 11:07:10;;;;;;;4.80;1.38;;;22.00;99.90;;;;;;5084168;28;20497;-77
2023/09/01 11:09:35;;;;;;;3.13;1.40;;;22.20;99.90;;;;;;5072914;28;20069;-79
2023/09/01 11:12:05;;;;;;;4.75;1.30;;;22.40;99.90;;;;;;5074267;28;20438;-81
2023/09/01 11:14:32;;;;;;;2.28;1.33;;;22.50;99.90;;;;;;5073577;28;20024;-89
2023/09/01 11:17:00;;;;;;;2.33;1.50;;;22.60;99.90;;;;;;5074660;28;20033;-78
2023/09/01 11:19:26;;;;;;;1.63;1.52;;;22.80;99.90;;;;;;5071174;28;20134;-87
2023/09/01 11:21:52;;;;;;;2.88;1.60;;;22.90;99.90;;;;;;5071629;28;20055;-78
2023/09/01 11:24:21;;;;;;;1.92;1.42;;;23.00;99.90;;;;;;5069238;28;20033;-78
2023/09/01 11:26:49;;;;;;;2.77;1.53;;;23.10;99.90;;;;;;5069561;28;20423;-76
2023/09/01 11:29:15;;;;;;;2.60;1.38;;;23.30;99.90;;;;;;5088235;28;20579;-75
2023/09/01 11:31:45;;;;;;;1.58;1.30;;;;;;;;;;5089156;28;20088;-77
2023/09/01 11:34:12;;;;;;;1.65;1.52;;;23.60;99.90;;;;;;5087759;28;20497;-74
2023/09/01 11:36:52;;;;;;;3.17;1.55;;;23.80;99.90;;;;;;5088689;28;20058;-73
2023/09/01 11:39:18;;;;;;;2.20;1.50;;;23.90;99.90;;;;;;5087423;28;20060;-72
2023/09/01 11:41:46;;;;;;;1.77;1.30;;;23.90;99.90;;;;;;5089097;28;20101;-77
2023/09/01 11:44:11;;;;;;;4.07;1.60;;;23.80;99.90;;;;;;5088065;28;20032;-77
2023/09/01 11:46:37;;;;;;;3.50;1.58;;;23.90;99.90;;;;;;5089058;28;20511;-76
2023/09/01 11:49:07;;;;;;;2.15;1.42;;;;;;;;;;5088057;28;20028;-81
2023/09/01 11:51:35;;;;;;;2.72;1.40;;;;;;;;;;5088534;28;20048;-70
2023/09/01 11:54:01;;;;;;;2.28;1.50;;;;;;;;;;5066721;28;20032;-70
2023/09/01 11:56:27;;;;;;;1.95;1.35;;;;;;;;;;5068100;28;20064;-71
2023/09/01 11:58:55;;;;;;;1.98;1.40;;;;;;;;;;5060548;28;20029;-71
2023/09/01 12:01:21;;;;;;;2.15;1.30;;;;;;;;;;5076056;28;20077;-71
2023/09/01 12:03:48;;;;;;;1.77;0.90;;;;;;;;;;5073471;28;20027;-71
2023/09/01 12:06:18;;;;;;;1.50;1.40;;;;;;;;;;5067689;28;20035;-71
2023/09/01 12:08:45;;;;;;;2.08;1.10;;;;;;;;;;5062198;28;20433;-71
2023/09/01 12:11:11;;;;;;;1.58;1.48;;;;;;;;;;5064492;28;20029;-70
2023/09/01 12:13:37;;;;;;;1.75;1.23;;;;;;;;;;5063675;28;20028;-71
2023/09/01 12:16:04;;;;;;;1.98;1.38;;;;;;;;;;5051947;28;20029;-71
2023/09/01 12:18:38;;;;;;;2.05;1.35;;;;;;;;;;5052344;28;20021;-71
2023/09/01 12:21:05;;;;;;;2.28;1.10;;;;;;;;;;5052322;28;20082;-72
2023/09/01 12:23:32;;;;;;;2.10;1.35;;;;;;;;;;5052005;28;20052;-71
2023/09/01 12:25:59;;;;;;;2.25;1.17;;;27.70;99.90;;;;;;5052078;28;20509;-71
2023/09/01 12:28:26;;;;;;;1.42;1.05;;;27.80;99.90;;;;;;5062164;28;20023;-71
2023/09/01 12:30:53;;;;;;;2.53;1.48;;;28.20;99.70;;;;;;5072517;28;20029;-72
2023/09/01 12:33:19;;;;;;;2.20;1.30;;;28.60;98.70;;;;;;5073132;28;20028;-71
2023/09/01 12:35:44;;;;;;;1.17;1.10;;;29.00;98.20;;;;;;5071995;28;20036;-71
2023/09/01 12:38:10;;;;;;;3.38;1.52;;;29.00;97.70;;;;;;5070172;28;20027;-71
2023/09/01 12:40:36;;;;;;;3.72;1.30;;;28.40;97.60;;;;;;5072661;28;20381;-71
2023/09/01 12:43:04;;;;;;;1.52;1.10;;;27.90;98.50;;;;;;5071262;28;20036;-71
2023/09/01 12:45:30;;;;;;;2.17;1.20;;;27.30;97.80;;;;;;5041077;28;20037;-70
2023/09/01 12:47:56;;;;;;;1.45;1.33;;;26.80;98.40;;;;;;5031587;28;20378;-70
2023/09/01 12:50:21;;;;;;;2.97;1.40;;;26.30;99.00;;;;;;5031913;28;20025;-67
2023/09/01 12:52:48;;;;;;;1.83;1.20;;;25.90;99.60;;;;;;5031221;28;20025;-71
2023/09/01 12:55:14;;;;;;;1.63;1.23;;;25.50;99.60;;;;;;5030894;28;20379;-70
2023/09/01 12:57:39;;;;;;;1.67;1.50;;;25.20;99.90;;;;;;5031767;28;20031;-71
2023/09/01 13:00:06;;;;;;;1.65;1.52;;;25.10;99.90;;;;;;5030940;28;20030;-73
2023/09/01 13:02:31;;;;;;;1.65;1.23;;;25.10;99.90;;;;;;5013522;28;20824;-70
2023/09/01 13:04:57;;;;;;;1.40;1.30;;;25.10;99.90;;;;;;5031786;28;20029;-71
2023/09/01 13:07:23;;;;;;;1.52;1.23;;;25.10;99.90;;;;;;5030683;28;20208;-69
2023/09/01 13:09:49;;;;;;;4.07;1.35;;;25.30;99.90;;;;;;5031787;28;20041;-71
2023/09/01 13:12:16;;;;;;;1.63;1.40;;;25.40;99.90;;;;;;5030487;28;20356;-71
2023/09/01 13:14:42;;;;;;;2.25;1.50;;;25.40;99.90;;;;;;5039851;28;20044;-71
2023/09/01 13:17:08;;;;;;;1.20;1.10;;;25.50;99.90;;;;;;5050781;28;20036;-72
2023/09/01 13:19:34;;;;;;;3.58;1.10;;;25.50;99.90;;;;;;5050316;28;20052;-70
2023/09/01 13:22:00;;;;;;;1.45;1.23;;;25.40;99.80;;;;;;5051426;28;20032;-71
2023/09/01 13:24:26;;;;;;;2.25;1.65;;;25.30;99.90;;;;;;5050709;28;20021;-71
2023/09/01 13:26:54;;;;;;;2.47;1.33;;;25.20;99.90;;;;;;5051380;28;20025;-71
2023/09/01 13:29:20;;;;;;;1.30;1.17;;;25.20;99.90;;;;;;5068501;28;20031;-70
2023/09/01 13:31:46;;;;;;;1.27;1.17;;;25.30;99.90;;;;;;5071033;28;20028;-70
2023/09/01 13:34:11;;;;;;;2.20;1.63;;;25.50;99.70;;;;;;5069990;28;20079;-71
2023/09/01 13:36:37;;;;;;;1.40;1.30;;;25.90;99.90;;;;;;5071394;28;20040;-70
2023/09/01 13:39:03;;;;;;;0.90;0.90;;;26.80;98.80;;;;;;5070358;28;20028;-70
2023/09/01 13:41:28;;;;;;;1.38;1.17;;;27.40;98.50;;;;;;5070348;28;20798;-71
2023/09/01 13:43:54;;;;;;;2.05;1.42;;;27.90;97.40;;;;;;5066982;28;20032;-71
2023/09/01 13:46:26;;;;;;;4.20;1.30;;;28.20;96.90;;;;;;5049851;28;20033;-70
2023/09/01 13:48:54;;;;;;;1.10;1.00;;;28.30;96.40;;;;;;5049808;28;20406;-70
2023/09/01 13:51:24;;;;;;;1.55;1.33;;;28.50;96.40;;;;;;5050155;28;20379;-67
2023/09/01 13:53:54;;;;;;;1.00;0.90;;;28.80;96.00;;;;;;5049762;28;20170;-71
2023/09/01 13:56:20;;;;;;;2.00;1.50;;;28.90;95.00;;;;;;5049395;28;20149;-68
2023/09/01 13:58:46;;;;;;;1.67;1.58;;;28.80;94.80;;;;;;5047883;28;20470;-69
2023/09/01 14:01:11;;;;;;;3.95;1.40;;;28.70;94.90;;;;;;5049822;28;20028;-69
2023/09/01 14:03:39;;;;;;;1.40;1.30;;;28.60;94.30;;;;;;5049970;28;20036;-68
2023/09/01 14:06:05;;;;;;;1.73;1.35;;;28.20;94.70;;;;;;5049943;28;20462;-70
2023/09/01 14:08:31;;;;;;;1.23;1.13;;;27.80;94.80;;;;;;5049283;28;20115;-70
2023/09/01 14:10:58;;;;;;;1.40;1.30;;;27.50;95.40;;;;;;5049379;28;20021;-70
2023/09/01 14:13:24;;;;;;;1.80;1.27;;;27.20;95.70;;;;;;5048967;28;20370;-69
2023/09/01 14:15:54;;;;;;;1.30;1.20;;;26.90;96.10;;;;;;5049193;28;20068;-71
2023/09/01 14:18:20;;;;;;;1.50;1.40;;;26.80;96.20;;;;;;5049448;28;20032;-69
2023/09/01 14:20:53;;;;;;;1.88;1.30;;;26.70;96.30;;;;;;5049654;28;20090;-68
2023/09/01 14:23:23;;;;;;;1.60;1.13;;;26.70;96.50;;;;;;5048935;28;20446;-70
2023/09/01 14:25:49;;;;;;;1.40;1.30;;;27.00;96.20;;;;;;5049446;28;20064;-70
2023/09/01 14:28:16;;;;;;;1.58;1.23;;;27.30;95.90;;;;;;5058433;28;20064;-74
2023/09/01 14:30:42;;;;;;;1.17;1.00;;;27.40;95.80;;;;;;5070075;28;20461;-75
2023/09/01 14:33:07;;;;;;;2.17;1.50;;;27.50;95.80;;;;;;5069871;28;20366;-72
2023/09/01 14:35:33;;;;;;;2.95;1.30;;;27.60;95.80;;;;;;5069745;28;20036;-73
2023/09/01 14:37:59;;;;;;;1.33;1.13;;;27.70;95.60;;;;;;5069234;28;20020;-73
2023/09/01 14:40:25;;;;;;;1.20;1.10;;;28.00;96.00;;;;;;5069561;28;20369;-70
2023/09/01 14:42:50;;;;;;;2.60;1.83;;;28.40;94.90;;;;;;5069260;28;20529;-74
2023/09/01 14:45:16;;;;;;;2.10;1.30;;;28.60;94.20;;;;;;5056188;28;20072;-74
2023/09/01 14:47:45;;;;;;;2.97;1.20;;;28.80;94.50;;;;;;5049422;28;20469;-76
2023/09/01 14:50:18;;;;;;;2.72;1.00;;;29.00;94.40;;;;;;5049307;28;20482;-79
2023/09/01 14:52:45;;;;;;;1.88;1.50;;;28.60;94.60;;;;;;5049913;28;20017;-72
2023/09/01 14:55:11;;;;;;;1.58;1.30;;;28.40;94.90;;;;;;5052519;28;20076;-77
2023/09/01 14:57:37;;;;;;;2.00;1.42;;;28.00;95.40;;;;;;5069568;28;20032;-73
2023/09/01 15:00:05;;;;;;;3.38;1.33;;;27.60;95.60;;;;;;5069977;28;20062;-72
2023/09/01 15:02:31;;;;;;;1.67;1.33;;;27.10;95.70;;;;;;5069271;28;20021;-74
2023/09/01 15:04:57;;;;;;;1.40;1.30;;;26.60;96.30;;;;;;5051637;28;20737;-73
2023/09/01 15:07:23;;;;;;;1.65;1.35;;;26.40;96.70;;;;;;5068500;28;20100;-74
2023/09/01 15:09:49;;;;;;;2.17;1.13;;;26.30;96.90;;;;;;5069913;28;20032;-74
2023/09/01 15:12:15;;;;;;;1.70;1.02;;;26.10;97.40;;;;;;5068398;28;20025;-72
2023/09/01 15:14:41;;;;;;;2.25;1.20;;;26.10;97.20;;;;;;5069827;28;20031;-78
2023/09/01 15:17:06;;;;;;;3.22;1.20;;;26.00;97.50;;;;;;5070420;28;20033;-78
2023/09/01 15:19:32;;;;;;;1.67;1.17;;;25.70;97.60;;;;;;5069345;28;20527;-76
2023/09/01 15:21:57;;;;;;;1.60;1.50;;;25.50;98.10;;;;;;5069984;28;20030;-79
2023/09/01 15:24:23;;;;;;;1.52;1.42;;;25.30;98.30;;;;;;5069782;28;20564;-83
2023/09/01 15:26:49;;;;;;;1.65;1.25;;;25.10;98.60;;;;;;5069802;28;20465;-82
2023/09/01 15:29:15;;;;;;;2.25;1.15;;;25.00;98.60;;;;;;5069280;28;20040;-78
2023/09/01 15:31:41;;;;;;;1.38;1.10;;;24.90;98.70;;;;;;5069367;28;20017;-76
2023/09/01 15:34:07;;;;;;;1.83;1.20;;;24.80;98.70;;;;;;5069527;28;20028;-76
2023/09/01 15:36:33;;;;;;;2.10;1.08;;;24.70;98.80;;;;;;5069698;28;20082;-75
2023/09/01 15:38:58;;;;;;;1.65;1.23;;;24.70;99.10;;;;;;5069377;28;20024;-76
2023/09/01 15:41:24;;;;;;;2.92;1.30;;;24.90;99.20;;;;;;5068763;28;20402;-75
2023/09/01 15:43:49;;;;;;;3.17;1.20;;;25.30;98.70;;;;;;5072159;28;20035;-79
2023/09/01 15:46:15;;;;;;;2.33;1.40;;;25.50;98.80;;;;;;5073375;28;20034;-80
2023/09/01 15:48:41;;;;;;;1.88;1.60;;;25.60;98.40;;;;;;5073033;28;20039;-79
2023/09/01 15:51:07;;;;;;;1.48;1.38;;;25.80;98.40;;;;;;5073578;28;20109;-79
2023/09/01 15:53:33;;;;;;;3.78;1.50;;;25.90;98.40;;;;;;5072343;28;20222;-79
2023/09/01 15:56:04;;;;;;;1.45;1.35;;;26.10;98.10;;;;;;5072603;28;20056;-80
2023/09/01 15:58:30;;;;;;;1.02;1.00;;;26.10;98.10;;;;;;5071875;28;20020;-79
2023/09/01 16:01:02;;;;;;;1.52;1.10;;;26.00;98.40;;;;;;5072867;28;20103;-75
2023/09/01 16:03:28;;;;;;;2.13;1.20;;;25.90;98.00;;;;;;5071851;28;20056;-76
2023/09/01 16:05:53;;;;;;;1.35;1.10;;;25.90;97.90;;;;;;5072571;28;20109;-75
2023/09/01 16:08:20;;;;;;;4.18;1.40;;;25.90;98.00;;;;;;5054180;28;20029;-75
2023/09/01 16:10:47;;;;;;;1.48;1.38;;;25.70;98.10;;;;;;5072895;28;20025;-75
2023/09/01 16:13:12;;;;;;;1.40;1.30;;;25.50;98.30;;;;;;5071412;28;20025;-76
2023/09/01 16:15:38;;;;;;;1.70;1.40;;;25.20;98.60;;;;;;5073000;28;20090;-75
2023/09/01 16:18:03;;;;;;;1.60;1.33;;;25.00;99.20;;;;;;5072620;28;20039;-76
2023/09/01 16:20:30;;;;;;;1.13;1.08;;;24.80;99.60;;;;;;5072225;28;20787;-74
2023/09/01 16:22:56;;;;;;;2.05;1.45;;;24.60;99.90;;;;;;5072276;28;20023;-74
2023/09/01 16:25:22;;;;;;;1.73;1.63;;;24.40;99.90;;;;;;5071749;28;20028;-75
2023/09/01 16:27:47;;;;;;;1.50;1.30;;;24.20;99.90;;;;;;5071452;28;20454;-74
2023/09/01 16:30:14;;;;;;;1.58;1.48;;;24.10;99.90;;;;;;5072197;28;20194;-72
2023/09/01 16:32:39;;;;;;;3.00;1.55;;;24.00;99.90;;;;;;5072016;28;20069;-73
2023/09/01 16:35:19;;;;;;;2.35;1.40;;;23.90;99.90;;;;;;5072441;28;20111;-72
2023/09/01 16:37:46;;;;;;;1.77;1.20;;;23.80;99.90;;;;;;5071840;28;20036;-72
2023/09/01 16:40:13;;;;;;;1.60;1.50;;;23.80;99.90;;;;;;5071766;28;20081;-72
2023/09/01 16:42:43;;;;;;;1.30;1.20;;;23.70;99.90;;;;;;5071356;28;20061;-72
2023/09/01 16:45:09;;;;;;;3.03;1.50;;;23.70;99.90;;;;;;5071692;28;20469;-71
2023/09/01 16:47:36;;;;;;;1.65;1.40;;;23.70;99.90;;;;;;5070983;28;20043;-71
2023/09/01 16:50:03;;;;;;;2.00;1.40;;;23.70;99.90;;;;;;5071669;28;20102;-70
2023/09/01 16:52:29;;;;;;;1.55;1.33;;;23.60;99.90;;;;;;5070992;28;20369;-71
2023/09/01 16:54:55;;;;;;;1.35;1.20;;;23.60;99.90;;;;;;5071342;28;20035;-71
2023/09/01 16:57:24;;;;;;;1.10;1.00;;;23.60;99.90;;;;;;5071048;28;20032;-70
2023/09/01 16:59:50;;;;;;;1.63;1.35;;;23.50;99.90;;;;;;5071168;28;20053;-70
2023/09/01 17:02:15;;;;;;;2.53;1.38;;;23.30;99.90;;;;;;5071180;28;20035;-71
2023/09/01 17:04:41;;;;;;;2.20;1.33;;;23.20;99.90;;;;;;5072250;28;20025;-71
2023/09/01 17:07:07;;;;;;;1.73;1.35;;;23.10;99.90;;;;;;5071631;28;20104;-70
2023/09/01 17:09:33;;;;;;;2.42;2.00;;;23.00;99.90;;;;;;5071127;28;20621;-70
2023/09/01 17:11:59;;;;;;;4.55;1.92;;;22.80;99.90;;;;;;5053758;28;20454;-71
2023/09/01 17:14:26;;;;;;;1.58;1.33;;;22.70;99.90;;;;;;5073639;28;20056;-70
2023/09/01 17:16:52;;;;;;;2.17;1.40;;;22.50;99.90;;;;;;5054663;28;20025;-70
2023/09/01 17:19:18;;;;;;;1.60;1.30;;;22.40;99.90;;;;;;5074469;28;20047;-70
2023/09/01 17:21:43;;;;;;;3.83;1.52;;;22.30;99.90;;;;;;5077717;28;20103;-72
2023/09/01 17:24:09;;;;;;;2.97;1.40;;;22.20;99.90;;;;;;5080394;28;20107;-69
2023/09/01 17:26:35;;;;;;;4.65;1.50;;;22.10;99.90;;;;;;5081337;28;20085;-69
2023/09/01 17:29:02;;;;;;;2.08;1.70;;;;;;;;;;5080010;28;20025;-69
2023/09/01 17:31:28;;;;;;;6.05;2.20;;;;;;;;;;5058008;28;20017;-70
2023/09/01 17:33:55;;;;;;;3.03;1.95;;;;;;;;;;5071343;28;20112;-71
2023/09/01 17:36:21;;;;;;;2.17;1.98;;;;;;;;;;5070602;28;20096;-71
2023/09/01 17:38:47;;;;;;;4.03;1.60;;;;;;;;;;5052442;28;20024;-71
2023/09/01 17:41:13;;;;;;;1.80;1.60;;;;;;;;;;5071755;28;20016;-71
2023/09/01 17:43:42;;;;;;;3.83;1.55;;;;;;;;;;5071140;28;20027;-70
2023/09/01 17:46:08;;;;;;;4.78;2.03;;;;;;;;;;5071701;28;20029;-70
2023/09/01 17:48:34;;;;;;;3.42;1.60;;;;;;;;;;5052932;28;20075;-70
2023/09/01 17:51:00;;;;;;;3.58;2.08;;;;;;;;;;5072065;28;20074;-70
2023/09/01 17:53:27;;;;;;;6.97;1.95;;;;;;;;;;5070117;28;20013;-71
2023/09/01 17:55:53;;;;;;;2.85;2.08;;;;;;;;;;5071181;28;20055;-70
2023/09/01 17:58:19;;;;;;;4.47;2.00;;;;;;;;;;5070310;28;20024;-70
2023/09/01 18:00:46;;;;;;;2.10;1.83;;;;;;;;;;5071235;28;20095;-69
2023/09/01 18:03:12;;;;;;;4.40;2.10;;;;;;;;;;5070695;28;20518;-70
2023/09/01 18:05:40;;;;;;;3.30;1.80;;;;;;;;;;5071136;28;20063;-69
2023/09/01 18:08:06;;;;;;;3.22;1.80;;;;;;;;;;5071508;28;20028;-69
2023/09/01 18:10:33;;;;;;;3.35;1.83;;;;;;;;;;5070646;28;20021;-69
2023/09/01 18:13:02;;;;;;;3.97;2.30;;;;;;;;;;5071622;28;20086;-69
2023/09/01 18:15:28;;;;;;;3.50;1.87;;;;;;;;;;5071165;28;20024;-69
2023/09/01 18:17:54;;;;;;;3.72;1.92;;;;;;;;;;5071378;28;20025;-69
2023/09/01 18:20:21;;;;;;;4.07;2.00;;;;;;;;;;5070756;28;20125;-69
2023/09/01 18:22:50;;;;;;;1.48;1.38;;;;;;;;;;5071033;28;20021;-70
2023/09/01 18:25:16;;;;;;;4.80;1.77;;;;;;;;;;5071132;28;20021;-70
2023/09/01 18:27:44;;;;;;;4.53;1.73;;;;;;;;;;5071441;28;20031;-69
2023/09/01 18:30:11;;;;;;;2.65;1.75;;;;;;;;;;5071187;28;20165;-69
2023/09/01 18:32:37;;;;;;;1.98;1.63;;;;;;;;;;5070786;28;20083;-69
2023/09/01 18:35:12;;;;;;;3.08;1.70;;;;;;;;;;5071795;28;20108;-69
2023/09/01 18:37:38;;;;;;;2.55;1.67;;;;;;;;;;5070895;28;20025;-69
2023/09/01 18:40:20;;;;;;;5.75;1.70;;;;;;;;;;5071592;28;20330;-70
2023/09/01 18:42:46;;;;;;;2.83;1.70;;;;;;;;;;5071229;28;20020;-69
2023/09/01 18:45:17;;;;;;;3.85;1.30;;;;;;;;;;5071404;28;20458;-71
2023/09/01 18:47:43;;;;;;;3.90;1.58;;;19.10;99.90;;;;;;5071241;28;20090;-70
2023/09/01 18:50:09;;;;;;;2.97;2.20;;;19.00;99.90;;;;;;5071364;28;20025;-69
2023/09/01 18:52:35;;;;;;;3.55;2.22;;;18.90;99.90;;;;;;5070227;28;20036;-70
2023/09/01 18:55:00;;;;;;;2.80;2.22;;;18.90;99.90;;;;;;5070857;28;20025;-69
2023/09/01 18:57:26;;;;;;;3.22;2.00;;;18.80;99.90;;;;;;5070260;28;20039;-70
2023/09/01 19:00:00;;;;;;;4.28;2.38;;;18.80;99.90;;;;;;5071574;28;20355;-69
2023/09/01 19:02:37;;;;;;;4.05;1.98;;;18.80;99.90;;;;;;5069927;28;20103;-69
2023/09/01 19:05:32;;;;;;;2.65;2.13;;;18.80;99.90;;;;;;5071344;28;20055;-69
2023/09/01 19:08:07;;;;;;;3.17;2.17;;;18.70;99.90;;;;;;5063627;28;20049;-69
2023/09/01 19:10:33;;;;;;;4.35;3.05;;;18.70;99.90;;;;;;5070488;28;20094;-69
2023/09/01 19:13:00;;;;;;;2.53;2.17;;;18.70;99.90;;;;;;5070943;28;20424;-69
2023/09/01 19:15:27;;;;;;;4.65;2.30;;;18.70;99.90;;;;;;5070292;28;20025;-70
2023/09/01 19:17:54;;;;;;;3.50;2.20;;;18.60;99.90;;;;;;5072715;28;20086;-69
2023/09/01 19:20:27;;;;;;;3.10;2.60;;;18.60;99.90;;;;;;5074199;28;20108;-70
2023/09/01 19:22:53;;;;;;;3.85;1.65;;;18.50;99.90;;;;;;5074879;28;20121;-69
2023/09/01 19:25:19;;;;;;;3.22;1.90;;;18.50;99.90;;;;;;5073925;28;20075;-69
2023/09/01 19:27:49;;;;;;;1.88;1.67;;;18.50;99.90;;;;;;5074489;28;20060;-69
2023/09/01 19:30:16;;;;;;;3.72;1.95;;;18.40;99.90;;;;;;5073953;28;20029;-70
2023/09/01 19:32:42;;;;;;;2.75;1.70;;;18.40;99.90;;;;;;5074670;28;20389;-70
2023/09/01 19:35:11;;;;;;;4.68;2.13;;;18.40;99.90;;;;;;5074514;28;20028;-69
2023/09/01 19:37:37;;;;;;;3.10;2.03;;;18.40;99.90;;;;;;5073769;28;20086;-69
2023/09/01 19:40:09;;;;;;;3.33;1.90;;;18.40;99.90;;;;;;5074928;28;20024;-69
2023/09/01 19:42:38;;;;;;;4.30;1.80;;;18.30;99.90;;;;;;5073502;28;20086;-70
2023/09/01 19:45:10;;;;;;;9.20;2.47;;;18.30;99.90;;;;;;5074914;28;20052;-69
2023/09/01 19:47:35;;;;;;;3.53;2.22;;;18.20;99.90;;;;;;5073242;28;20127;-69
2023/09/01 19:50:02;;;;;;;2.55;2.20;;;18.20;99.90;;;;;;5074648;28;20112;-69
2023/09/01 19:52:28;;;;;;;4.90;2.25;;;18.20;99.90;;;;;;5073269;28;20104;-69
2023/09/01 19:54:53;;;;;;;6.70;2.10;;;18.10;99.90;;;;;;5074037;28;20056;-69
2023/09/01 19:57:19;;;;;;;5.20;2.00;;;18.10;99.90;;;;;;5072790;28;20474;-70
2023/09/01 19:59:44;;;;;;;4.35;1.70;;;18.10;99.90;;;;;;5074556;28;20111;-69
2023/09/01 20:02:17;;;;;;;4.50;1.60;;;18.10;99.90;;;;;;5074249;28;20029;-69
2023/09/01 20:04:43;;;;;;;2.85;1.70;;;18.00;99.90;;;;;;5074207;28;20028;-69
2023/09/01 20:07:08;;;;;;;3.78;1.80;;;18.00;99.90;;;;;;5074190;28;20040;-69
2023/09/01 20:09:34;;;;;;;5.00;2.03;;;17.90;99.90;;;;;;5072889;28;20032;-69
2023/09/01 20:12:00;;;;;;;3.67;2.15;;;17.90;99.90;;;;;;5074160;28;20016;-69
2023/09/01 20:14:26;;;;;;;4.55;1.90;;;17.90;99.90;;;;;;5072932;28;20054;-69
2023/09/01 20:16:52;;;;;;;3.05;2.15;;;17.80;99.90;;;;;;5074357;28;20082;-69
2023/09/01 20:19:19;;;;;;;4.55;2.63;;;17.80;99.90;;;;;;5072908;28;20024;-69
2023/09/01 20:21:45;;;;;;;5.68;2.50;;;17.70;99.90;;;;;;5074280;28;20032;-68
2023/09/01 20:24:10;;;;;;;5.95;2.83;;;17.60;99.90;;;;;;5055675;28;20075;-68
2023/09/01 20:26:36;;;;;;;3.80;2.40;;;17.60;99.90;;;;;;5073133;28;20119;-69
2023/09/01 20:29:02;;;;;;;5.60;2.63;;;17.60;99.90;;;;;;5073012;28;20029;-68
2023/09/01 20:31:27;;;;;;;3.42;2.65;;;17.50;99.90;;;;;;5072983;28;20032;-68
2023/09/01 20:33:53;;;;;;;3.95;2.50;;;17.50;99.90;;;;;;5073599;28;20480;-69
2023/09/01 20:36:21;;;;;;;5.15;2.95;;;17.50;99.90;;;;;;5073546;28;20033;-69
2023/09/01 20:38:46;;;;;;;5.90;2.47;;;17.40;99.90;;;;;;5073410;28;20036;-69
2023/09/01 20:41:12;;;;;;;3.42;2.58;;;17.40;99.90;;;;;;5073633;28;20035;-70
2023/09/01 20:43:38;;;;;;;4.93;2.38;;;17.30;99.90;;;;;;5072767;28;20023;-68
2023/09/01 20:46:04;;;;;;;3.95;2.67;;;17.30;99.90;;;;;;5073601;28;20462;-68
2023/09/01 20:48:29;;;;;;;5.32;2.15;;;17.30;99.90;;;;;;5072297;28;20111;-68
2023/09/01 20:50:55;;;;;;;3.08;2.67;;;17.30;99.90;;;;;;5073633;28;20027;-69
2023/09/01 20:53:21;;;;;;;5.40;2.65;;;17.40;99.90;;;;;;5054382;28;20032;-69
2023/09/01 20:55:47;;;;;;;5.22;2.25;;;17.40;99.90;;;;;;5072713;28;20140;-69
2023/09/01 20:58:12;;;;;;;5.07;1.90;;;17.30;99.90;;;;;;5072614;28;20107;-70
2023/09/01 21:00:39;;;;;;;2.67;1.75;;;17.40;99.90;;;;;;5072813;28;20370;-69
2023/09/01 21:03:05;;;;;;;3.53;2.30;;;17.40;99.90;;;;;;5072945;28;20114;-69
2023/09/01 21:05:31;;;;;;;5.03;2.30;;;17.40;99.90;;;;;;5072113;28;20072;-68
2023/09/01 21:07:57;;;;;;;4.55;2.08;;;17.30;99.90;;;;;;5072851;28;20075;-69
2023/09/01 21:10:23;;;;;;;2.50;2.17;;;17.20;99.90;;;;;;5072548;28;20050;-69
2023/09/01 21:12:49;;;;;;;2.03;1.83;;;17.10;99.90;;;;;;5072537;28;20414;-69
2023/09/01 21:15:15;;;;;;;2.28;1.90;;;17.10;99.90;;;;;;5072381;28;20051;-70
2023/09/01 21:17:40;;;;;;;2.92;2.08;;;17.00;99.90;;;;;;5072322;28;20024;-68
2023/09/01 21:20:07;;;;;;;3.83;2.10;;;17.00;99.90;;;;;;5072955;28;20082;-69
2023/09/01 21:22:33;;;;;;;3.08;2.20;;;16.90;99.90;;;;;;5071352;28;20668;-68
2023/09/01 21:24:59;;;;;;;3.75;2.88;;;16.90;99.90;;;;;;5072716;28;20040;-68
2023/09/01 21:27:25;;;;;;;6.60;2.80;;;16.90;99.90;;;;;;5071406;28;20449;-69
2023/09/01 21:29:52;;;;;;;5.03;3.38;;;16.90;99.90;;;;;;5072755;28;20548;-68
2023/09/01 21:32:20;;;;;;;3.53;2.22;;;16.90;99.90;;;;;;5071430;28;20024;-69
2023/09/01 21:34:47;;;;;;;7.68;2.63;;;16.90;99.90;;;;;;5072628;28;20031;-68
2023/09/01 21:37:13;;;;;;;4.70;2.58;;;16.90;99.90;;;;;;5072066;28;20024;-70
2023/09/01 21:39:38;;;;;;;3.70;2.45;;;16.90;99.90;;;;;;5071073;28;20089;-68
2023/09/01 21:42:04;;;;;;;3.53;2.38;;;16.90;99.90;;;;;;5072530;28;20027;-68
2023/09/01 21:44:30;;;;;;;4.07;2.70;;;16.90;99.90;;;;;;5071230;28;20109;-68
2023/09/01 21:46:56;;;;;;;3.05;1.90;;;16.90;99.90;;;;;;5071900;28;20070;-69
2023/09/01 21:49:21;;;;;;;6.65;1.98;;;16.90;99.90;;;;;;5071211;28;20032;-69
2023/09/01 21:51:47;;;;;;;4.22;2.45;;;16.80;99.90;;;;;;5072244;28;20032;-68
2023/09/01 21:54:13;;;;;;;4.03;2.42;;;16.80;99.90;;;;;;5070917;28;20035;-69
2023/09/01 21:56:39;;;;;;;4.78;2.33;;;16.70;99.90;;;;;;5071170;28;20052;-68
2023/09/01 21:59:04;;;;;;;5.18;2.78;;;16.70;99.90;;;;;;5070935;28;20024;-68
2023/09/01 22:01:31;;;;;;;1.70;1.60;;;16.60;99.90;;;;;;5053409;28;20020;-68
2023/09/01 22:03:56;;;;;;;4.15;1.88;;;16.60;99.90;;;;;;5071756;28;20470;-68
2023/09/01 22:06:22;;;;;;;4.53;3.08;;;16.50;99.90;;;;;;5071143;28;20031;-68
2023/09/01 22:08:48;;;;;;;5.50;2.85;;;16.40;99.90;;;;;;5071669;28;20487;-68
2023/09/01 22:11:14;;;;;;;4.05;2.78;;;16.40;99.90;;;;;;5071245;28;20016;-70
2023/09/01 22:13:39;;;;;;;4.47;2.75;;;16.40;99.90;;;;;;5071437;28;20386;-68
2023/09/01 22:16:08;;;;;;;3.97;2.42;;;16.40;99.90;;;;;;5071868;28;20032;-68
2023/09/01 22:18:34;;;;;;;3.53;2.25;;;16.40;99.90;;;;;;5070590;28;20233;-68
2023/09/01 22:21:00;;;;;;;3.08;1.85;;;16.30;99.90;;;;;;5071590;28;20481;-68
2023/09/01 22:23:25;;;;;;;3.03;2.08;;;16.30;99.90;;;;;;5070400;28;20461;-68
2023/09/01 22:25:51;;;;;;;2.60;2.17;;;16.30;99.90;;;;;;5071777;28;20377;-67
2023/09/01 22:28:17;;;;;;;2.88;2.00;;;16.20;99.90;;;;;;5070541;28;20032;-68
2023/09/01 22:30:42;;;;;;;2.20;1.80;;;16.20;99.90;;;;;;5071774;28;20036;-68
2023/09/01 22:33:08;;;;;;;2.22;1.80;;;16.20;99.90;;;;;;5071123;28;20381;-68
2023/09/01 22:35:33;;;;;;;3.05;1.65;;;16.20;99.90;;;;;;5070944;28;20036;-68
2023/09/01 22:37:59;;;;;;;2.38;1.90;;;16.20;99.90;;;;;;5071124;28;20029;-68
2023/09/01 22:40:24;;;;;;;6.80;2.05;;;16.10;99.90;;;;;;5070371;28;20029;-68
2023/09/01 22:42:50;;;;;;;3.60;2.00;;;16.20;99.90;;;;;;5071076;28;20096;-68
2023/09/01 22:45:16;;;;;;;5.20;2.03;;;16.20;99.90;;;;;;5070650;28;20056;-68
2023/09/01 22:47:42;;;;;;;2.10;1.90;;;16.20;99.90;;;;;;5071052;28;20064;-68
2023/09/01 22:50:08;;;;;;;5.18;2.17;;;16.20;99.90;;;;;;5071563;28;20029;-67
2023/09/01 22:52:33;;;;;;;2.95;2.50;;;16.20;99.90;;;;;;5069860;28;20085;-68
2023/09/01 22:54:59;;;;;;;3.58;2.20;;;16.20;99.90;;;;;;5070716;28;20068;-67
2023/09/01 22:57:28;;;;;;;2.60;1.88;;;;;;;;;;5070450;28;20031;-68
2023/09/01 22:59:56;;;;;;;3.35;1.88;;;;;;;;;;5071421;28;20086;-68
2023/09/01 23:02:21;;;;;;;3.38;2.03;;;16.00;99.90;;;;;;5069820;28;20420;-68
2023/09/01 23:04:47;;;;;;;2.33;1.95;;;16.00;99.90;;;;;;5053195;28;20025;-67
2023/09/01 23:07:13;;;;;;;2.67;1.65;;;15.90;99.90;;;;;;5070866;28;20029;-68
2023/09/01 23:09:38;;;;;;;1.90;1.70;;;15.90;99.90;;;;;;5070497;28;20036;-67
2023/09/01 23:12:05;;;;;;;2.80;1.83;;;15.90;99.90;;;;;;5071292;28;20096;-67
2023/09/01 23:14:30;;;;;;;2.20;1.60;;;15.90;99.90;;;;;;5069578;28;20440;-68
2023/09/01 23:16:56;;;;;;;3.13;1.88;;;15.80;99.90;;;;;;5071293;28;20094;-68
2023/09/01 23:19:21;;;;;;;2.83;2.08;;;15.80;99.90;;;;;;5070055;28;20021;-68
2023/09/01 23:21:47;;;;;;;3.22;2.20;;;15.70;99.90;;;;;;5071323;28;20071;-68
2023/09/01 23:24:12;;;;;;;4.80;2.08;;;15.70;99.90;;;;;;5070125;28;20363;-69
2023/09/01 23:26:42;;;;;;;3.30;1.92;;;15.60;99.90;;;;;;5070801;28;20029;-67
2023/09/01 23:29:07;;;;;;;3.47;2.37;;;15.60;99.90;;;;;;5070463;28;20115;-68
2023/09/01 23:31:33;;;;;;;2.58;1.80;;;15.50;99.90;;;;;;5070102;28;20100;-68
2023/09/01 23:33:59;;;;;;;2.30;2.10;;;15.50;99.90;;;;;;5070468;28;20027;-67
2023/09/01 23:36:24;;;;;;;2.70;2.00;;;15.50;99.90;;;;;;5069946;28;20028;-68
2023/09/01 23:38:50;;;;;;;2.72;1.92;;;15.50;99.90;;;;;;5070682;28;20363;-68
2023/09/01 23:41:16;;;;;;;2.53;2.08;;;15.40;99.90;;;;;;5070211;28;20385;-68
2023/09/01 23:43:42;;;;;;;3.00;2.00;;;15.40;99.90;;;;;;5070787;28;20024;-68
2023/09/01 23:46:08;;;;;;;3.45;2.40;;;15.40;99.90;;;;;;5070890;28;20407;-69
2023/09/01 23:48:33;;;;;;;3.25;2.10;;;15.30;99.90;;;;;;5069609;28;20108;-68
2023/09/01 23:51:01;;;;;;;2.10;1.73;;;;;;;;;;5071044;28;20056;-68
2023/09/01 23:53:27;;;;;;;3.13;2.00;;;;;;;;;;5070120;28;20056;-68
2023/09/01 23:55:53;;;;;;;4.35;2.20;;;;;;;;;;5070561;28;20091;-68
2023/09/01 23:58:19;;;;;;;3.05;2.30;;;;;;;;;;5069968;28;20027;-68
